createdAt,value
2018-12-13T00:00:20.921Z,101792.06
2018-12-13T00:02:46.841Z,101789.42
2018-12-13T00:05:12.763Z,101781.74
2018-12-13T00:07:38.698Z,101779.94
2018-12-13T00:10:04.660Z,101774.70
2018-12-13T00:12:30.564Z,101772.05
2018-12-13T00:14:56.503Z,101772.07
2018-12-13T00:17:22.405Z,101770.41
2018-12-13T00:19:48.291Z,101771.63
2018-12-13T00:22:14.215Z,101771.25
2018-12-13T00:24:40.118Z,101774.91
2018-12-13T00:27:06.035Z,101773.53
2018-12-13T00:29:31.942Z,101771.53
2018-12-13T00:31:57.888Z,101765.94
2018-12-13T00:34:23.787Z,101764.30
2018-12-13T00:36:49.731Z,101765.73
2018-12-13T00:39:15.626Z,101760.95
2018-12-13T00:41:41.505Z,101758.41
2018-12-13T00:44:07.441Z,101755.78
2018-12-13T00:46:33.339Z,101762.59
2018-12-13T00:48:59.308Z,101760.22
2018-12-13T00:51:25.210Z,101761.41
2018-12-13T00:53:51.221Z,101764.97
2018-12-13T00:56:17.179Z,101771.30
2018-12-13T00:58:43.192Z,101770.42
2018-12-13T01:01:09.192Z,101775.20
2018-12-13T01:03:35.210Z,101768.85
2018-12-13T01:06:01.269Z,101762.19
2018-12-13T01:08:27.150Z,101769.95
2018-12-13T01:10:53.076Z,101766.81
2018-12-13T01:13:18.978Z,101766.34
2018-12-13T01:15:44.902Z,101760.73
2018-12-13T01:18:10.825Z,101768.28
2018-12-13T01:20:36.769Z,101774.75
2018-12-13T01:23:02.671Z,101766.63
2018-12-13T01:25:28.605Z,101764.60
2018-12-13T01:27:54.589Z,101758.94
2018-12-13T01:30:20.471Z,101758.92
2018-12-13T01:32:46.395Z,101758.52
2018-12-13T01:35:12.307Z,101752.41
2018-12-13T01:37:38.236Z,101756.42
2018-12-13T01:40:04.227Z,101750.27
2018-12-13T01:42:30.174Z,101747.41
2018-12-13T01:44:56.058Z,101752.06
2018-12-13T01:47:21.952Z,101753.27
2018-12-13T01:49:47.918Z,101748.72
2018-12-13T01:52:13.800Z,101745.19
2018-12-13T01:54:39.721Z,101749.34
2018-12-13T01:57:05.645Z,101750.16
2018-12-13T01:59:31.560Z,101751.30
2018-12-13T02:01:57.458Z,101748.67
2018-12-13T02:04:23.352Z,101745.64
2018-12-13T02:06:49.288Z,101745.09
2018-12-13T02:09:15.186Z,101743.95
2018-12-13T02:11:41.108Z,101741.90
2018-12-13T02:14:07.006Z,101742.58
2018-12-13T02:16:32.940Z,101736.13
2018-12-13T02:18:58.876Z,101740.69
2018-12-13T02:21:24.879Z,101725.26
2018-12-13T02:23:50.783Z,101727.12
2018-12-13T02:26:16.686Z,101722.33
2018-12-13T02:28:42.694Z,101736.61
2018-12-13T02:31:08.572Z,101730.20
2018-12-13T02:33:34.514Z,101719.89
2018-12-13T02:36:00.415Z,101730.14
2018-12-13T02:38:26.512Z,101736.87
2018-12-13T02:40:52.403Z,101736.31
2018-12-13T02:43:18.331Z,101726.76
2018-12-13T02:45:44.285Z,101731.69
2018-12-13T02:48:10.210Z,101730.27
2018-12-13T02:50:36.135Z,101726.83
2018-12-13T02:53:02.068Z,101728.13
2018-12-13T02:55:27.977Z,101730.38
2018-12-13T02:57:53.904Z,101721.29
2018-12-13T03:00:19.805Z,101722.20
2018-12-13T03:02:46.653Z,101713.04
2018-12-13T03:05:12.563Z,101715.16
2018-12-13T03:07:38.545Z,101725.09
2018-12-13T03:10:04.431Z,101718.91
2018-12-13T03:12:30.371Z,101714.27
2018-12-13T03:14:56.265Z,101717.80
2018-12-13T03:17:22.165Z,101711.33
2018-12-13T03:19:48.088Z,101721.24
2018-12-13T03:22:13.993Z,101727.44
2018-12-13T03:24:39.920Z,101722.78
2018-12-13T03:27:05.904Z,101723.32
2018-12-13T03:29:31.892Z,101720.89
2018-12-13T03:31:57.793Z,101721.29
2018-12-13T03:34:23.735Z,101711.39
2018-12-13T03:36:49.637Z,101712.91
2018-12-13T03:39:15.577Z,101704.97
2018-12-13T03:41:41.619Z,101709.18
2018-12-13T03:44:07.555Z,101696.48
2018-12-13T03:46:33.491Z,101707.97
2018-12-13T03:48:59.415Z,101702.74
2018-12-13T03:51:25.353Z,101700.89
2018-12-13T03:53:51.270Z,101695.83
2018-12-13T03:56:17.362Z,101694.91
2018-12-13T03:58:43.248Z,101692.05
2018-12-13T04:01:09.191Z,101687.20
2018-12-13T04:03:35.085Z,101694.54
2018-12-13T04:06:00.975Z,101690.03
2018-12-13T04:08:26.884Z,101691.23
2018-12-13T04:10:52.797Z,101678.58
2018-12-13T04:13:18.728Z,101679.20
2018-12-13T04:15:44.650Z,101690.72
2018-12-13T04:18:10.740Z,101693.41
2018-12-13T04:20:36.707Z,101690.80
2018-12-13T04:23:02.634Z,101696.58
2018-12-13T04:25:28.542Z,101688.11
2018-12-13T04:27:54.522Z,101682.52
2018-12-13T04:30:20.456Z,101678.78
2018-12-13T04:32:46.376Z,101690.48
2018-12-13T04:35:12.310Z,101681.83
2018-12-13T04:37:38.203Z,101680.31
2018-12-13T04:40:04.091Z,101663.08
2018-12-13T04:42:29.999Z,101667.67
2018-12-13T04:44:55.873Z,101672.91
2018-12-13T04:47:21.803Z,101663.28
2018-12-13T04:49:48.627Z,101673.92
2018-12-13T04:52:14.580Z,101668.94
2018-12-13T04:54:40.485Z,101669.36
2018-12-13T04:57:06.456Z,101667.59
2018-12-13T04:59:32.341Z,101665.75
2018-12-13T05:01:58.316Z,101664.64
2018-12-13T05:04:24.283Z,101663.61
2018-12-13T05:06:50.178Z,101660.56
2018-12-13T05:09:16.124Z,101656.63
2018-12-13T05:11:42.042Z,101657.83
2018-12-13T05:14:07.973Z,101658.13
2018-12-13T05:16:33.918Z,101659.16
2018-12-13T05:18:59.849Z,101653.30
2018-12-13T05:21:25.760Z,101652.11
2018-12-13T05:23:51.674Z,101666.42
2018-12-13T05:26:17.616Z,101647.99
2018-12-13T05:28:43.519Z,101640.50
2018-12-13T05:31:09.630Z,101649.59
2018-12-13T05:33:35.679Z,101644.45
2018-12-13T05:36:01.700Z,101643.59
2018-12-13T05:38:27.629Z,101641.53
2018-12-13T05:40:53.524Z,101646.89
2018-12-13T05:43:19.448Z,101643.16
2018-12-13T05:45:45.420Z,101636.67
2018-12-13T05:48:11.342Z,101636.31
2018-12-13T05:50:37.443Z,101638.31
2018-12-13T05:53:03.359Z,101639.39
2018-12-13T05:55:29.383Z,101634.63
2018-12-13T05:57:55.341Z,101638.28
2018-12-13T06:00:21.665Z,101634.33
2018-12-13T06:02:47.554Z,101628.61
2018-12-13T06:05:13.485Z,101633.03
2018-12-13T06:07:39.383Z,101632.06
2018-12-13T06:10:05.317Z,101626.77
2018-12-13T06:12:31.213Z,101625.95
2018-12-13T06:14:57.131Z,101615.78
2018-12-13T06:17:23.045Z,101620.65
2018-12-13T06:19:48.983Z,101617.42
2018-12-13T06:22:14.879Z,101625.39
2018-12-13T06:24:40.820Z,101624.24
2018-12-13T06:27:06.712Z,101626.77
2018-12-13T06:29:32.631Z,101629.05
2018-12-13T06:31:58.528Z,101630.30
2018-12-13T06:34:24.468Z,101620.86
2018-12-13T06:36:50.358Z,101630.41
2018-12-13T06:39:16.304Z,101626.81
2018-12-13T06:41:42.194Z,101623.17
2018-12-13T06:44:08.116Z,101628.73
2018-12-13T06:46:34.030Z,101622.79
2018-12-13T06:48:59.944Z,101621.66
2018-12-13T06:51:25.871Z,101617.98
2018-12-13T06:53:51.842Z,101622.34
2018-12-13T06:56:17.865Z,101626.48
2018-12-13T06:58:43.743Z,101626.13
2018-12-13T07:01:09.684Z,101627.08
2018-12-13T07:03:35.592Z,101628.90
2018-12-13T07:06:01.536Z,101622.93
2018-12-13T07:08:27.551Z,101627.74
2018-12-13T07:10:53.488Z,101621.05
2018-12-13T07:13:19.434Z,101628.36
2018-12-13T07:15:45.393Z,101639.16
2018-12-13T07:18:11.329Z,101632.43
2018-12-13T07:20:37.266Z,101630.08
2018-12-13T07:23:03.193Z,101632.30
2018-12-13T07:25:29.129Z,101626.79
2018-12-13T07:27:55.066Z,101621.58
2018-12-13T07:30:21.148Z,101624.52
2018-12-13T07:32:47.033Z,101618.05
2018-12-13T07:35:12.975Z,101623.31
2018-12-13T07:37:38.872Z,101627.25
2018-12-13T07:40:06.338Z,101624.16
2018-12-13T07:42:32.231Z,101621.58
2018-12-13T07:44:58.160Z,101616.16
2018-12-13T07:47:24.056Z,101611.88
2018-12-13T07:49:49.985Z,101624.32
2018-12-13T07:52:15.916Z,101629.42
2018-12-13T07:54:41.863Z,101615.41
2018-12-13T07:57:07.777Z,101616.89
2018-12-13T07:59:33.677Z,101619.20
2018-12-13T08:01:59.608Z,101615.34
2018-12-13T08:04:25.547Z,101606.55
2018-12-13T08:06:51.573Z,101605.25
2018-12-13T08:09:17.493Z,101606.02
2018-12-13T08:11:43.428Z,101608.50
2018-12-13T08:14:09.328Z,101607.07
2018-12-13T08:16:35.256Z,101612.06
2018-12-13T08:19:01.184Z,101604.73
2018-12-13T08:21:27.119Z,101605.34
2018-12-13T08:23:53.049Z,101602.73
2018-12-13T08:26:19.075Z,101597.94
2018-12-13T08:28:44.975Z,101601.83
2018-12-13T08:31:10.917Z,101605.34
2018-12-13T08:33:36.853Z,101603.05
2018-12-13T08:36:02.778Z,101614.44
2018-12-13T08:38:28.723Z,101613.17
2018-12-13T08:40:54.651Z,101618.37
2018-12-13T08:43:20.574Z,101618.49
2018-12-13T08:45:46.512Z,101618.44
2018-12-13T08:48:12.415Z,101615.48
2018-12-13T08:50:38.373Z,101615.88
2018-12-13T08:53:04.290Z,101614.16
2018-12-13T08:55:30.284Z,101611.91
2018-12-13T08:57:56.277Z,101616.20
2018-12-13T09:00:22.426Z,101615.39
2018-12-13T09:02:48.381Z,101619.33
2018-12-13T09:05:14.276Z,101620.48
2018-12-13T09:07:40.188Z,101623.69
2018-12-13T09:10:06.095Z,101621.50
2018-12-13T09:12:32.084Z,101625.42
2018-12-13T09:14:58.029Z,101625.63
2018-12-13T09:17:24.019Z,101617.59
2018-12-13T09:19:49.911Z,101623.95
2018-12-13T09:22:15.847Z,101624.05
2018-12-13T09:24:41.837Z,101621.91
2018-12-13T09:27:07.763Z,101618.25
2018-12-13T09:29:33.683Z,101622.21
2018-12-13T09:31:59.593Z,101618.10
2018-12-13T09:34:25.490Z,101624.98
2018-12-13T09:36:51.384Z,101620.19
2018-12-13T09:39:17.318Z,101624.88
2018-12-13T09:41:50.172Z,101622.72
2018-12-13T09:44:16.531Z,101625.98
2018-12-13T09:46:42.869Z,101626.04
2018-12-13T09:49:08.791Z,101619.01
2018-12-13T09:51:34.730Z,101619.19
2018-12-13T09:54:00.677Z,101614.00
2018-12-13T09:56:26.677Z,101616.05
2018-12-13T09:58:52.797Z,101604.09
2018-12-13T10:01:18.713Z,101608.53
2018-12-13T10:03:44.622Z,101610.27
2018-12-13T10:06:10.540Z,101606.91
2018-12-13T10:08:36.505Z,101602.23
2018-12-13T10:11:02.409Z,101593.19
2018-12-13T10:13:28.301Z,101595.79
2018-12-13T10:15:54.264Z,101587.55
2018-12-13T10:18:20.173Z,101584.62
2018-12-13T10:20:46.126Z,101579.42
2018-12-13T10:23:12.022Z,101588.09
2018-12-13T10:25:37.916Z,101585.95
2018-12-13T10:28:03.850Z,101583.30
2018-12-13T10:30:29.762Z,101577.67
2018-12-13T10:32:55.697Z,101575.13
2018-12-13T10:35:21.638Z,101582.94
2018-12-13T10:37:47.586Z,101579.44
2018-12-13T10:40:13.501Z,101569.89
2018-12-13T10:42:39.457Z,101559.88
2018-12-13T10:45:05.365Z,101568.16
2018-12-13T10:47:31.290Z,101564.69
2018-12-13T10:49:57.196Z,101556.84
2018-12-13T10:52:23.131Z,101560.77
2018-12-13T10:54:49.075Z,101556.86
2018-12-13T10:57:14.984Z,101551.61
2018-12-13T10:59:40.946Z,101547.27
2018-12-13T11:02:08.886Z,101547.28
2018-12-13T11:04:34.813Z,101545.11
2018-12-13T11:07:00.723Z,101560.31
2018-12-13T11:09:26.648Z,101555.09
2018-12-13T11:11:52.566Z,101552.91
2018-12-13T11:14:18.506Z,101558.15
2018-12-13T11:16:44.433Z,101551.19
2018-12-13T11:19:10.424Z,101551.64
2018-12-13T11:21:36.348Z,101548.13
2018-12-13T11:24:02.267Z,101543.36
2018-12-13T11:26:28.190Z,101545.09
2018-12-13T11:31:58.344Z,101539.44
2018-12-13T11:34:24.220Z,101540.27
2018-12-13T11:36:50.169Z,101537.64
2018-12-13T11:39:16.070Z,101540.66
2018-12-13T11:41:42.017Z,101544.11
2018-12-13T11:44:07.913Z,101535.88
2018-12-13T11:46:33.821Z,101544.56
2018-12-13T11:48:59.811Z,101540.25
2018-12-13T11:51:25.761Z,101535.07
2018-12-13T11:53:51.711Z,101538.50
2018-12-13T11:56:17.601Z,101542.80
2018-12-13T11:58:43.541Z,101536.39
2018-12-13T12:01:09.477Z,101540.25
2018-12-13T12:03:35.437Z,101535.07
2018-12-13T12:06:01.352Z,101537.22
2018-12-13T12:08:27.427Z,101537.69
2018-12-13T12:10:53.365Z,101538.47
2018-12-13T12:13:19.296Z,101534.16
2018-12-13T12:15:48.812Z,101532.44
2018-12-13T12:18:15.040Z,101537.27
2018-12-13T12:20:40.946Z,101534.23
2018-12-13T12:23:06.884Z,101536.41
2018-12-13T12:25:32.805Z,101533.31
2018-12-13T12:27:58.772Z,101535.95
2018-12-13T12:30:24.676Z,101534.58
2018-12-13T12:32:50.601Z,101526.39
2018-12-13T12:35:16.532Z,101528.91
2018-12-13T12:37:42.457Z,101533.14
2018-12-13T12:40:08.474Z,101527.12
2018-12-13T12:42:34.381Z,101521.95
2018-12-13T12:45:00.304Z,101524.96
2018-12-13T12:47:26.197Z,101522.89
2018-12-13T12:49:52.165Z,101521.98
2018-12-13T12:52:18.093Z,101519.84
2018-12-13T12:54:44.003Z,101512.00
2018-12-13T12:57:10.011Z,101514.66
2018-12-13T12:59:36.001Z,101506.37
2018-12-13T13:02:02.063Z,101509.34
2018-12-13T13:04:28.030Z,101510.27
2018-12-13T13:06:53.969Z,101504.58
2018-12-13T13:09:25.002Z,101506.23
2018-12-13T13:11:47.916Z,101501.78
2018-12-13T13:14:13.824Z,101491.16
2018-12-13T13:16:39.728Z,101495.06
2018-12-13T13:19:05.659Z,101487.24
2018-12-13T13:21:31.554Z,101491.17
2018-12-13T13:23:57.483Z,101488.13
2018-12-13T13:26:23.412Z,101486.41
2018-12-13T13:28:49.323Z,101482.05
2018-12-13T13:31:15.240Z,101483.77
2018-12-13T13:33:41.133Z,101481.59
2018-12-13T13:36:07.412Z,101482.04
2018-12-13T13:38:33.306Z,101485.53
2018-12-13T13:40:59.257Z,101486.80
2018-12-13T13:43:25.164Z,101482.03
2018-12-13T13:45:51.109Z,101485.04
2018-12-13T13:48:17.053Z,101489.00
2018-12-13T13:50:42.947Z,101492.02
2018-12-13T13:53:08.960Z,101487.25
2018-12-13T13:55:34.851Z,101499.37
2018-12-13T13:58:00.798Z,101489.40
2018-12-13T14:00:26.699Z,101489.88
2018-12-13T14:02:52.637Z,101492.03
2018-12-13T14:05:18.543Z,101495.53
2018-12-13T14:07:44.476Z,101488.58
2018-12-13T14:10:10.386Z,101488.13
2018-12-13T14:12:36.319Z,101487.69
2018-12-13T14:15:02.594Z,101485.09
2018-12-13T14:17:28.551Z,101485.46
2018-12-13T14:19:54.484Z,101484.64
2018-12-13T14:22:20.424Z,101481.95
2018-12-13T14:24:46.368Z,101471.16
2018-12-13T14:27:12.732Z,101472.86
2018-12-13T14:29:38.657Z,101471.11
2018-12-13T14:32:04.602Z,101475.48
2018-12-13T14:34:30.497Z,101470.27
2018-12-13T14:36:56.425Z,101472.42
2018-12-13T14:39:22.370Z,101464.60
2018-12-13T14:41:48.325Z,101460.23
2018-12-13T14:44:14.239Z,101456.80
2018-12-13T14:46:40.157Z,101462.90
2018-12-13T14:49:06.136Z,101456.76
2018-12-13T14:51:32.062Z,101457.59
2018-12-13T14:53:58.037Z,101463.62
2018-12-13T14:56:23.967Z,101454.17
2018-12-13T14:58:49.925Z,101457.66
2018-12-13T15:01:15.859Z,101461.13
2018-12-13T15:03:41.863Z,101454.59
2018-12-13T15:06:07.753Z,101454.16
2018-12-13T15:08:33.688Z,101465.41
2018-12-13T15:10:59.637Z,101460.28
2018-12-13T15:13:25.577Z,101453.73
2018-12-13T15:15:58.608Z,101463.63
2018-12-13T15:18:24.555Z,101465.39
2018-12-13T15:20:50.473Z,101465.38
2018-12-13T15:23:16.985Z,101469.73
2018-12-13T15:25:42.903Z,101474.46
2018-12-13T15:28:08.904Z,101476.75
2018-12-13T15:30:34.841Z,101482.72
2018-12-13T15:33:00.747Z,101486.16
2018-12-13T15:35:26.717Z,101483.60
2018-12-13T15:37:52.625Z,101485.75
2018-12-13T15:40:18.584Z,101477.47
2018-12-13T15:42:44.526Z,101479.19
2018-12-13T15:45:11.216Z,101483.69
2018-12-13T15:47:37.141Z,101480.60
2018-12-13T15:50:04.572Z,101485.70
2018-12-13T15:52:30.608Z,101491.04
2018-12-13T15:54:56.565Z,101500.12
2018-12-13T15:57:22.654Z,101491.36
2018-12-13T15:59:49.431Z,101496.59
2018-12-13T16:02:15.615Z,101494.16
2018-12-13T16:04:41.608Z,101493.28
2018-12-13T16:07:07.574Z,101492.45
2018-12-13T16:09:33.567Z,101490.70
2018-12-13T16:11:59.545Z,101487.22
2018-12-13T16:14:26.083Z,101480.70
2018-12-13T16:16:52.072Z,101486.27
2018-12-13T16:19:18.085Z,101481.52
2018-12-13T16:21:44.138Z,101479.30
2018-12-13T16:24:10.225Z,101476.30
2018-12-13T16:26:36.451Z,101470.59
2018-12-13T16:29:02.424Z,101474.83
2018-12-13T16:31:28.396Z,101468.84
2018-12-13T16:33:54.403Z,101465.41
2018-12-13T16:36:20.394Z,101468.45
2018-12-13T16:38:46.334Z,101472.78
2018-12-13T16:41:23.144Z,101469.73
2018-12-13T16:43:49.464Z,101460.57
2018-12-13T16:46:15.510Z,101467.87
2018-12-13T16:48:41.494Z,101470.55
2018-12-13T16:51:07.429Z,101462.03
2018-12-13T16:53:33.440Z,101472.39
2018-12-13T16:55:59.448Z,101468.98
2018-12-13T16:58:26.081Z,101462.92
2018-12-13T17:00:52.556Z,101470.52
2018-12-13T17:03:31.916Z,101460.22
2018-12-13T17:05:58.071Z,101462.12
2018-12-13T17:08:24.109Z,101465.27
2018-12-13T17:10:51.692Z,101465.59
2018-12-13T17:13:17.760Z,101465.79
2018-12-13T17:15:43.873Z,101468.77
2018-12-13T17:18:09.894Z,101465.36
2018-12-13T17:20:36.156Z,101468.78
2018-12-13T17:23:02.189Z,101466.19
2018-12-13T17:25:28.207Z,101470.41
2018-12-13T17:27:54.206Z,101468.70
2018-12-13T17:30:20.270Z,101469.20
2018-12-13T17:32:46.943Z,101473.77
2018-12-13T17:35:12.947Z,101474.45
2018-12-13T17:37:38.969Z,101483.17
2018-12-13T17:40:05.081Z,101480.77
2018-12-13T17:42:31.647Z,101477.27
2018-12-13T17:44:58.499Z,101470.22
2018-12-13T17:47:24.625Z,101475.72
2018-12-13T17:49:50.647Z,101476.30
2018-12-13T17:52:16.881Z,101477.13
2018-12-13T17:54:43.007Z,101475.02
2018-12-13T17:57:09.826Z,101485.30
2018-12-13T17:59:36.813Z,101484.50
2018-12-13T18:02:02.881Z,101490.06
2018-12-13T18:04:36.297Z,101487.45
2018-12-13T18:07:02.890Z,101486.17
2018-12-13T18:09:29.859Z,101482.66
2018-12-13T18:11:55.970Z,101491.72
2018-12-13T18:14:23.040Z,101486.88
2018-12-13T18:16:49.433Z,101488.34
2018-12-13T18:19:15.535Z,101491.27
2018-12-13T18:21:42.997Z,101497.48
2018-12-13T18:24:10.034Z,101498.33
2018-12-13T18:26:37.556Z,101497.02
2018-12-13T18:29:11.535Z,101489.31
2018-12-13T18:31:38.620Z,101486.59
2018-12-13T18:34:04.949Z,101503.03
2018-12-13T18:36:31.379Z,101496.17
2018-12-13T18:38:58.033Z,101499.30
2018-12-13T18:41:26.360Z,101497.55
2018-12-13T18:43:52.468Z,101493.16
2018-12-13T18:46:18.558Z,101501.03
2018-12-13T18:48:44.631Z,101491.59
2018-12-13T18:51:10.926Z,101493.33
2018-12-13T18:53:37.064Z,101499.40
2018-12-13T18:56:06.815Z,101499.86
2018-12-13T18:58:32.894Z,101493.77
2018-12-13T19:00:59.487Z,101500.27
2018-12-13T19:03:26.038Z,101495.50
2018-12-13T19:05:53.240Z,101496.80
2018-12-13T19:08:19.574Z,101495.52
2018-12-13T19:10:46.830Z,101492.05
2018-12-13T19:13:13.683Z,101498.56
2018-12-13T19:15:42.111Z,101493.29
2018-12-13T19:18:13.607Z,101492.00
2018-12-13T19:20:40.092Z,101498.36
2018-12-13T19:23:07.602Z,101504.51
2018-12-13T19:25:33.707Z,101500.51
2018-12-13T19:27:59.747Z,101504.46
2018-12-13T19:30:26.837Z,101504.06
2018-12-13T19:32:53.332Z,101509.27
2018-12-13T19:35:21.758Z,101502.31
2018-12-13T19:37:50.640Z,101496.77
2018-12-13T19:40:16.947Z,101501.31
2018-12-13T19:42:43.923Z,101502.73
2018-12-13T19:45:10.597Z,101502.67
2018-12-13T19:47:36.668Z,101500.03
2018-12-13T19:50:04.487Z,101504.05
2018-12-13T19:52:36.134Z,101505.77
2018-12-13T19:55:03.260Z,101510.36
2018-12-13T19:57:29.444Z,101508.26
2018-12-13T19:59:56.446Z,101496.56
2018-12-13T20:02:23.313Z,101500.03
2018-12-13T20:04:50.451Z,101499.98
2018-12-13T20:07:17.400Z,101499.30
2018-12-13T20:09:46.510Z,101501.02
2018-12-13T20:12:13.800Z,101501.39
2018-12-13T20:14:41.333Z,101502.68
2018-12-13T20:17:08.378Z,101504.42
2018-12-13T20:19:36.727Z,101509.56
2018-12-13T20:22:09.009Z,101507.05
2018-12-13T20:24:35.108Z,101508.00
2018-12-13T20:27:08.218Z,101507.11
2018-12-13T20:29:36.436Z,101508.41
2018-12-13T20:32:03.733Z,101513.53
2018-12-13T20:34:29.948Z,101508.78
2018-12-13T20:36:56.766Z,101525.69
2018-12-13T20:39:23.164Z,101514.77
2018-12-13T20:41:53.190Z,101525.81
2018-12-13T20:44:19.270Z,101521.88
2018-12-13T20:46:45.288Z,101525.38
2018-12-13T20:49:13.508Z,101531.89
2018-12-13T20:51:39.580Z,101531.00
2018-12-13T20:54:06.031Z,101531.47
2018-12-13T20:56:33.656Z,101534.08
2018-12-13T20:59:00.824Z,101534.03
2018-12-13T21:01:28.262Z,101526.69
2018-12-13T21:03:55.696Z,101526.16
2018-12-13T21:06:22.596Z,101530.09
2018-12-13T21:08:48.579Z,101534.91
2018-12-13T21:11:15.949Z,101528.34
2018-12-13T21:13:43.545Z,101526.11
2018-12-13T21:16:09.665Z,101534.78
2018-12-13T21:18:36.730Z,101531.33
2018-12-13T21:21:05.049Z,101529.27
2018-12-13T21:23:31.122Z,101528.44
2018-12-13T21:25:59.096Z,101529.28
2018-12-13T21:28:26.156Z,101536.16
2018-12-13T21:30:53.082Z,101532.81
2018-12-13T21:33:19.446Z,101525.30
2018-12-13T21:35:46.752Z,101529.71
2018-12-13T21:38:13.014Z,101520.23
2018-12-13T21:40:39.067Z,101522.86
2018-12-13T21:43:06.080Z,101527.50
2018-12-13T21:45:33.561Z,101534.19
2018-12-13T21:48:00.568Z,101530.34
2018-12-13T21:50:28.013Z,101529.41
2018-12-13T21:52:54.170Z,101531.23
2018-12-13T21:55:20.490Z,101517.03
2018-12-13T21:57:49.837Z,101524.28
2018-12-13T22:00:17.533Z,101516.84
2018-12-13T22:02:43.881Z,101520.05
2018-12-13T22:05:11.440Z,101523.42
2018-12-13T22:07:37.535Z,101515.94
2018-12-13T22:10:05.043Z,101514.86
2018-12-13T22:12:31.233Z,101517.52
2018-12-13T22:15:02.518Z,101511.05
2018-12-13T22:17:26.394Z,101518.30
2018-12-13T22:19:52.466Z,101515.23
2018-12-13T22:22:18.472Z,101516.51
2018-12-13T22:24:44.898Z,101521.73
2018-12-13T22:27:11.010Z,101522.61
2018-12-13T22:29:37.042Z,101530.51
2018-12-13T22:32:03.487Z,101524.44
2018-12-13T22:34:29.677Z,101520.56
2018-12-13T22:36:56.045Z,101524.53
2018-12-13T22:39:22.185Z,101538.31
2018-12-13T22:41:48.213Z,101532.16
2018-12-13T22:44:14.263Z,101535.80
2018-12-13T22:46:41.201Z,101534.95
2018-12-13T22:49:07.227Z,101540.56
2018-12-13T22:51:33.258Z,101532.34
2018-12-13T22:53:59.295Z,101531.31
2018-12-13T22:56:25.290Z,101535.63
2018-12-13T22:58:51.946Z,101535.75
2018-12-13T23:01:17.935Z,101537.89
2018-12-13T23:03:43.960Z,101536.20
2018-12-13T23:06:09.900Z,101536.22
2018-12-13T23:08:35.997Z,101537.94
2018-12-13T23:11:02.319Z,101532.05
2018-12-13T23:13:29.184Z,101530.81
2018-12-13T23:15:55.409Z,101529.98
2018-12-13T23:18:21.402Z,101534.48
2018-12-13T23:20:47.381Z,101534.73
2018-12-13T23:23:13.715Z,101536.80
2018-12-13T23:25:46.609Z,101533.33
2018-12-13T23:28:12.534Z,101534.58
2018-12-13T23:30:38.537Z,101534.16
2018-12-13T23:33:04.556Z,101539.05
2018-12-13T23:35:30.541Z,101531.16
2018-12-13T23:37:56.441Z,101536.39
2018-12-13T23:40:22.349Z,101535.19
2018-12-13T23:42:48.285Z,101536.80
2018-12-13T23:45:14.185Z,101536.13
2018-12-13T23:47:40.126Z,101541.31
2018-12-13T23:50:06.038Z,101541.59
2018-12-13T23:52:31.992Z,101540.73
2018-12-13T23:54:57.888Z,101545.44
2018-12-13T23:57:23.820Z,101539.77
2018-12-13T23:59:49.744Z,101535.14
